X  Cerrar Datos meteorológicos de aviación METAR     LEAL Alicante-Elche Miguel Hernández Airport
Temperatura
27°C Temperatura
14°C Punto de rocío
45% Humedad



Viento
21 KM/H
13 MPH
6 M/S
11 NUDO



120°
ESE
Condiciones actuales

Claro Claro
Presión 1019.98 (hPa) - 30.12 (inHg)
Visibilidad 6 (milla) - 9.7 (km)
Aeropuerto
Código de aeropuerto LEAL

Localidad: Alicante-Elche Miguel Hernández Airport
Distancia: 60 (km)

Metar:
LEAL 211000Z 12011KT 080V160 CAVOK 27/14 Q1020 NOSIG

Hora: 21-06-2024 12:00 CEST